createdAt,value
2023-04-04T00:00:40.277Z,0.40
2023-04-04T00:03:07.894Z,0.30
2023-04-04T00:05:36.145Z,0.30
2023-04-04T00:08:04.171Z,0.50
2023-04-04T00:10:31.502Z,0.60
2023-04-04T00:12:59.259Z,0.40
2023-04-04T00:15:26.473Z,0.47
2023-04-04T00:17:53.579Z,0.40
2023-04-04T00:20:20.807Z,0.50
2023-04-04T00:22:47.774Z,0.40
2023-04-04T00:25:15.305Z,0.40
2023-04-04T00:27:45.306Z,0.40
2023-04-04T00:30:13.247Z,0.40
2023-04-04T00:32:40.798Z,0.40
2023-04-04T00:35:09.176Z,0.40
2023-04-04T00:37:36.310Z,0.40
2023-04-04T00:40:04.539Z,0.50
2023-04-04T00:42:34.294Z,0.50
2023-04-04T00:45:01.554Z,0.40
2023-04-04T00:47:31.754Z,0.40
2023-04-04T00:49:58.805Z,0.55
2023-04-04T00:52:26.186Z,0.35
2023-04-04T00:54:56.615Z,0.32
2023-04-04T00:57:24.635Z,0.40
2023-04-04T00:59:52.202Z,0.40
2023-04-04T01:02:19.376Z,0.50
2023-04-04T01:04:47.493Z,0.50
2023-04-04T01:07:14.929Z,0.40
2023-04-04T01:09:42.126Z,0.43
2023-04-04T01:12:09.852Z,0.50
2023-04-04T01:14:36.860Z,0.45
2023-04-04T01:17:05.247Z,0.38
2023-04-04T01:19:53.804Z,0.40
2023-04-04T01:22:23.165Z,0.50
2023-04-04T01:24:51.876Z,0.30
2023-04-04T01:27:19.166Z,0.40
2023-04-04T01:29:46.170Z,0.47
2023-04-04T01:32:42.062Z,0.30
2023-04-04T01:35:42.901Z,0.40
2023-04-04T01:39:00.024Z,0.40
2023-04-04T01:41:33.324Z,0.30
2023-04-04T01:44:03.446Z,0.40
2023-04-04T01:46:31.497Z,0.40
2023-04-04T01:48:58.818Z,0.40
2023-04-04T01:51:26.078Z,0.30
2023-04-04T01:53:53.108Z,0.40
2023-04-04T01:56:20.181Z,0.38
2023-04-04T01:58:47.496Z,0.30
2023-04-04T02:01:14.825Z,0.50
2023-04-04T02:03:42.679Z,0.50
2023-04-04T02:06:09.796Z,0.40
2023-04-04T02:08:38.412Z,0.40
2023-04-04T02:11:05.632Z,0.40
2023-04-04T02:13:32.677Z,0.30
2023-04-04T02:15:59.925Z,0.32
2023-04-04T02:18:29.823Z,0.35
2023-04-04T02:20:57.736Z,0.35
2023-04-04T02:23:24.933Z,0.38
2023-04-04T02:25:52.237Z,0.50
2023-04-04T02:28:19.780Z,0.40
2023-04-04T02:30:47.163Z,0.40
2023-04-04T02:33:14.285Z,0.43
2023-04-04T02:35:44.105Z,0.50
2023-04-04T02:38:11.361Z,0.45
2023-04-04T02:40:40.172Z,0.40
2023-04-04T02:43:07.539Z,0.40
2023-04-04T02:45:34.510Z,0.43
2023-04-04T02:48:02.328Z,0.40
2023-04-04T02:50:29.416Z,0.40
2023-04-04T02:53:03.469Z,0.50
2023-04-04T02:55:31.045Z,0.52
2023-04-04T02:57:58.271Z,0.43
2023-04-04T03:00:25.641Z,0.50
2023-04-04T03:02:57.884Z,0.50
2023-04-04T03:05:27.375Z,0.40
2023-04-04T03:07:58.412Z,0.40
2023-04-04T03:10:27.427Z,0.40
2023-04-04T03:12:54.393Z,0.50
2023-04-04T03:15:21.746Z,0.40
2023-04-04T03:17:48.959Z,0.30
2023-04-04T03:20:16.378Z,0.40
2023-04-04T03:22:43.347Z,0.50
2023-04-04T03:25:11.070Z,0.38
2023-04-04T03:27:39.788Z,0.45
2023-04-04T03:30:09.266Z,0.40
2023-04-04T03:32:39.609Z,0.40
2023-04-04T03:35:08.016Z,0.30
2023-04-04T03:37:35.669Z,0.45
2023-04-04T03:40:02.716Z,0.50
2023-04-04T03:42:36.702Z,0.40
2023-04-04T03:45:03.946Z,0.40
2023-04-04T03:47:31.121Z,0.55
2023-04-04T03:49:58.285Z,0.40
2023-04-04T03:52:25.444Z,0.30
2023-04-04T03:54:52.425Z,0.38
2023-04-04T03:57:19.929Z,0.43
2023-04-04T03:59:47.132Z,0.52
2023-04-04T04:02:14.171Z,0.40
2023-04-04T04:04:44.577Z,0.40
2023-04-04T04:07:12.046Z,0.50
2023-04-04T04:09:38.974Z,0.52
2023-04-04T04:12:06.376Z,0.40
2023-04-04T04:14:35.132Z,0.32
2023-04-04T04:17:02.321Z,0.50
2023-04-04T04:19:29.216Z,0.50
2023-04-04T04:21:56.296Z,0.40
2023-04-04T04:24:23.413Z,0.57
2023-04-04T04:26:50.516Z,0.57
2023-04-04T04:29:17.597Z,0.50
2023-04-04T04:31:44.611Z,0.40
2023-04-04T04:34:11.669Z,0.45
2023-04-04T04:36:38.683Z,0.40
2023-04-04T04:39:05.800Z,0.43
2023-04-04T04:41:32.898Z,0.50
2023-04-04T04:44:00.161Z,0.40
2023-04-04T04:46:27.322Z,0.35
2023-04-04T04:48:54.573Z,0.50
2023-04-04T04:51:21.699Z,0.40
2023-04-04T04:53:48.853Z,0.40
2023-04-04T04:56:15.914Z,0.50
2023-04-04T04:58:45.073Z,0.50
2023-04-04T05:01:12.268Z,0.50
2023-04-04T05:03:39.616Z,0.60
2023-04-04T05:06:07.134Z,0.40
2023-04-04T05:08:34.258Z,0.40
2023-04-04T05:11:01.826Z,0.38
2023-04-04T05:13:30.390Z,0.45
2023-04-04T05:16:00.409Z,0.45
2023-04-04T05:18:27.556Z,0.40
2023-04-04T05:20:55.513Z,0.50
2023-04-04T05:23:23.181Z,0.50
2023-04-04T05:25:51.726Z,0.40
2023-04-04T05:28:22.992Z,0.50
2023-04-04T05:30:50.285Z,0.60
2023-04-04T05:33:17.396Z,0.60
2023-04-04T05:35:44.416Z,0.50
2023-04-04T05:38:11.677Z,0.50
2023-04-04T05:40:40.540Z,0.50
2023-04-04T05:43:09.461Z,0.50
2023-04-04T05:45:37.419Z,0.60
2023-04-04T05:48:05.628Z,0.50
2023-04-04T05:50:32.694Z,0.50
2023-04-04T05:52:59.890Z,0.50
2023-04-04T05:55:28.321Z,0.50
2023-04-04T05:57:56.798Z,0.50
2023-04-04T06:00:23.794Z,0.50
2023-04-04T06:02:51.614Z,0.60
2023-04-04T06:05:19.500Z,0.47
2023-04-04T06:07:46.707Z,0.50
2023-04-04T06:10:15.348Z,0.70
2023-04-04T06:12:42.458Z,0.60
2023-04-04T06:15:10.000Z,0.57
2023-04-04T06:17:37.138Z,0.60
2023-04-04T06:20:05.133Z,0.60
2023-04-04T06:22:32.319Z,0.73
2023-04-04T06:24:59.260Z,0.60
2023-04-04T06:27:29.651Z,0.50
2023-04-04T06:29:57.904Z,0.63
2023-04-04T06:32:26.078Z,0.50
2023-04-04T06:34:53.606Z,0.50
2023-04-04T06:37:20.646Z,0.70
2023-04-04T06:39:47.869Z,0.73
2023-04-04T06:42:14.884Z,0.68
2023-04-04T06:44:41.907Z,0.55
2023-04-04T06:47:09.088Z,0.77
2023-04-04T06:49:36.222Z,0.80
2023-04-04T06:52:04.018Z,0.60
2023-04-04T06:54:31.954Z,0.75
2023-04-04T06:56:59.081Z,0.68
2023-04-04T06:59:26.127Z,0.80
2023-04-04T07:01:53.225Z,0.75
2023-04-04T07:04:20.535Z,0.75
2023-04-04T07:06:47.672Z,0.60
2023-04-04T07:09:25.810Z,0.60
2023-04-04T07:11:53.276Z,0.60
2023-04-04T07:14:25.241Z,0.80
2023-04-04T07:16:53.401Z,1.05
2023-04-04T07:19:20.800Z,0.82
2023-04-04T07:21:48.336Z,0.95
2023-04-04T07:24:15.344Z,0.80
2023-04-04T07:26:42.553Z,1.10
2023-04-04T07:29:09.837Z,0.70
2023-04-04T07:31:36.884Z,0.82
2023-04-04T07:34:04.419Z,0.50
2023-04-04T07:36:31.620Z,0.80
2023-04-04T07:38:59.037Z,0.82
2023-04-04T07:41:26.663Z,0.70
2023-04-04T07:43:53.738Z,0.85
2023-04-04T07:46:21.075Z,0.75
2023-04-04T07:48:48.736Z,0.70
2023-04-04T07:51:16.108Z,1.10
2023-04-04T07:53:43.044Z,1.08
2023-04-04T07:56:10.022Z,0.98
2023-04-04T07:58:36.977Z,1.17
2023-04-04T08:01:04.324Z,0.98
2023-04-04T08:03:31.488Z,0.95
2023-04-04T08:05:58.744Z,1.20
2023-04-04T08:08:26.197Z,1.08
2023-04-04T08:10:53.961Z,0.95
2023-04-04T08:13:21.088Z,1.20
2023-04-04T08:15:48.210Z,1.20
2023-04-04T08:18:15.563Z,1.55
2023-04-04T08:20:42.647Z,1.00
2023-04-04T08:23:10.032Z,0.98
2023-04-04T08:25:37.264Z,1.10
2023-04-04T08:28:05.682Z,1.38
2023-04-04T08:30:33.246Z,0.98
2023-04-04T08:33:00.766Z,1.17
2023-04-04T08:35:28.262Z,0.90
2023-04-04T08:37:55.730Z,1.23
2023-04-04T08:40:23.131Z,1.50
2023-04-04T08:42:52.014Z,0.70
2023-04-04T08:45:19.588Z,1.05
2023-04-04T08:47:50.571Z,1.05
2023-04-04T08:50:19.682Z,0.90
2023-04-04T08:52:47.963Z,1.00
2023-04-04T08:55:16.074Z,1.13
2023-04-04T08:57:43.679Z,1.38
2023-04-04T09:00:11.750Z,1.60
2023-04-04T09:03:11.020Z,1.73
2023-04-04T09:05:38.568Z,1.60
2023-04-04T09:08:08.719Z,1.58
2023-04-04T09:10:38.038Z,1.63
2023-04-04T09:13:15.586Z,1.48
2023-04-04T09:15:52.053Z,1.83
2023-04-04T09:18:19.325Z,1.30
2023-04-04T09:20:50.521Z,1.33
2023-04-04T09:23:21.017Z,1.27
2023-04-04T09:28:22.217Z,1.40
2023-04-04T09:30:53.990Z,1.40
2023-04-04T09:33:26.752Z,1.42
2023-04-04T09:36:07.259Z,1.30
2023-04-04T09:38:39.687Z,1.23
2023-04-04T09:41:09.919Z,1.33
2023-04-04T09:43:39.616Z,1.40
2023-04-04T09:46:08.049Z,1.08
2023-04-04T09:48:37.032Z,1.30
2023-04-04T09:51:12.168Z,1.90
2023-04-04T09:53:42.304Z,1.52
2023-04-04T09:56:09.878Z,1.20
2023-04-04T09:58:46.312Z,1.30
2023-04-04T10:01:20.317Z,1.35
2023-04-04T10:03:55.354Z,1.40
2023-04-04T10:06:24.230Z,1.40
2023-04-04T10:08:51.954Z,1.23
2023-04-04T10:11:34.299Z,1.00
2023-04-04T10:14:05.527Z,1.08
2023-04-04T10:16:35.043Z,1.17
2023-04-04T10:19:04.768Z,1.25
2023-04-04T10:21:32.240Z,0.95
2023-04-04T10:24:02.279Z,1.02
2023-04-04T10:26:31.047Z,1.00
2023-04-04T10:28:58.317Z,0.90
2023-04-04T10:31:26.375Z,1.00
2023-04-04T10:34:20.919Z,0.95
2023-04-04T10:37:21.367Z,0.85
2023-04-04T10:40:10.166Z,0.90
2023-04-04T10:42:47.216Z,0.70
2023-04-04T10:45:20.966Z,0.90
2023-04-04T10:47:50.732Z,0.90
2023-04-04T10:50:20.734Z,1.00
2023-04-04T10:52:48.735Z,0.60
2023-04-04T10:55:17.275Z,0.80
2023-04-04T10:57:50.932Z,0.95
2023-04-04T11:00:20.506Z,0.80
2023-04-04T11:03:00.407Z,0.70
2023-04-04T11:05:42.503Z,0.60
2023-04-04T11:08:14.302Z,0.70
2023-04-04T11:10:47.932Z,0.88
2023-04-04T11:13:25.700Z,0.98
2023-04-04T11:16:10.087Z,0.82
2023-04-04T11:18:40.434Z,0.80
2023-04-04T11:21:24.845Z,0.85
2023-04-04T11:23:54.783Z,0.75
2023-04-04T11:26:28.267Z,0.70
2023-04-04T11:29:04.167Z,0.70
2023-04-04T11:31:40.389Z,0.85
2023-04-04T11:34:11.377Z,0.60
2023-04-04T11:36:38.988Z,0.60
2023-04-04T11:39:21.335Z,0.70
2023-04-04T11:42:12.155Z,0.75
2023-04-04T11:44:48.883Z,0.70
2023-04-04T11:47:20.191Z,0.80
2023-04-04T11:49:48.074Z,0.75
2023-04-04T11:52:21.181Z,0.63
2023-04-04T11:54:49.390Z,0.80
2023-04-04T11:57:22.105Z,0.77
2023-04-04T11:59:51.638Z,0.65
2023-04-04T12:02:34.901Z,0.75
2023-04-04T12:05:03.076Z,0.82
2023-04-04T12:07:30.518Z,0.80
2023-04-04T12:09:58.955Z,0.60
2023-04-04T12:12:28.512Z,0.90
2023-04-04T12:15:06.291Z,0.80
2023-04-04T12:17:43.500Z,0.80
2023-04-04T12:20:11.591Z,0.90
2023-04-04T12:22:38.664Z,0.80
2023-04-04T12:25:06.737Z,0.77
2023-04-04T12:27:34.962Z,0.90
2023-04-04T12:30:04.277Z,0.85
2023-04-04T12:32:32.154Z,0.73
2023-04-04T12:35:03.855Z,0.60
2023-04-04T12:37:31.895Z,1.00
2023-04-04T12:40:01.698Z,0.68
2023-04-04T12:42:32.095Z,0.80
2023-04-04T12:45:04.267Z,0.93
2023-04-04T12:47:33.147Z,0.93
2023-04-04T12:50:00.816Z,0.73
2023-04-04T12:52:33.520Z,0.80
2023-04-04T12:55:12.966Z,0.73
2023-04-04T12:57:40.737Z,0.73
2023-04-04T13:00:09.613Z,0.73
2023-04-04T13:02:39.316Z,0.88
2023-04-04T13:05:10.313Z,0.98
2023-04-04T13:07:44.802Z,0.90
2023-04-04T13:10:16.516Z,0.70
2023-04-04T13:13:00.706Z,0.80
2023-04-04T13:15:52.945Z,0.98
2023-04-04T13:18:26.590Z,0.75
2023-04-04T13:20:55.318Z,0.77
2023-04-04T13:23:24.236Z,0.82
2023-04-04T13:25:52.010Z,0.80
2023-04-04T13:28:19.253Z,0.80
2023-04-04T13:30:49.920Z,0.82
2023-04-04T13:33:22.587Z,0.95
2023-04-04T13:35:51.725Z,0.80
2023-04-04T13:38:19.132Z,0.90
2023-04-04T13:40:48.908Z,0.88
2023-04-04T13:43:16.734Z,0.70
2023-04-04T13:45:46.839Z,1.00
2023-04-04T13:48:14.471Z,0.80
2023-04-04T13:50:51.319Z,0.70
2023-04-04T13:53:19.061Z,0.80
2023-04-04T13:58:20.223Z,1.02
2023-04-04T14:00:49.746Z,0.80
2023-04-04T14:03:18.603Z,0.65
2023-04-04T14:05:45.948Z,0.90
2023-04-04T14:08:14.828Z,0.70
2023-04-04T14:10:42.036Z,0.63
2023-04-04T14:13:12.182Z,0.80
2023-04-04T14:15:40.911Z,0.70
2023-04-04T14:18:08.497Z,0.77
2023-04-04T14:20:39.099Z,0.70
2023-04-04T14:23:06.346Z,0.73
2023-04-04T14:25:35.088Z,0.80
2023-04-04T14:28:02.189Z,0.77
2023-04-04T14:30:29.563Z,0.70
2023-04-04T14:32:56.941Z,0.80
2023-04-04T14:35:24.317Z,0.90
2023-04-04T14:37:51.555Z,0.80
2023-04-04T14:40:18.695Z,0.60
2023-04-04T14:42:45.633Z,0.50
2023-04-04T14:45:12.880Z,0.65
2023-04-04T14:47:41.036Z,0.80
2023-04-04T14:50:09.230Z,1.00
2023-04-04T14:52:36.691Z,0.70
2023-04-04T14:55:04.689Z,0.70
2023-04-04T14:57:39.375Z,0.82
2023-04-04T15:00:16.123Z,0.50
2023-04-04T15:02:43.648Z,0.75
2023-04-04T15:05:11.876Z,0.70
2023-04-04T15:07:39.107Z,0.70
2023-04-04T15:10:08.240Z,0.90
2023-04-04T15:12:35.449Z,0.80
2023-04-04T15:15:02.498Z,1.10
2023-04-04T15:17:29.553Z,0.80
2023-04-04T15:19:56.614Z,1.00
2023-04-04T15:22:23.601Z,1.10
2023-04-04T15:24:50.559Z,1.10
2023-04-04T15:27:17.773Z,1.10
2023-04-04T15:29:44.856Z,1.00
2023-04-04T15:32:12.011Z,1.17
2023-04-04T15:34:39.107Z,1.00
2023-04-04T15:37:06.356Z,0.95
2023-04-04T15:39:42.642Z,0.98
2023-04-04T15:42:17.209Z,1.00
2023-04-04T15:44:44.738Z,1.27
2023-04-04T15:47:11.936Z,1.00
2023-04-04T15:49:39.010Z,1.20
2023-04-04T15:52:06.271Z,1.05
2023-04-04T15:54:33.453Z,1.08
2023-04-04T15:57:01.936Z,0.82
2023-04-04T15:59:31.900Z,1.23
2023-04-04T16:01:59.945Z,1.00
2023-04-04T16:04:26.920Z,0.98
2023-04-04T16:06:54.511Z,0.95
2023-04-04T16:09:21.568Z,0.95
2023-04-04T16:11:49.063Z,1.00
2023-04-04T16:14:16.258Z,1.00
2023-04-04T16:16:43.633Z,1.02
2023-04-04T16:19:14.340Z,1.00
2023-04-04T16:21:41.841Z,0.88
2023-04-04T16:24:09.546Z,1.08
2023-04-04T16:26:36.903Z,0.90
2023-04-04T16:29:03.970Z,0.80
2023-04-04T16:31:32.277Z,0.70
2023-04-04T16:33:59.651Z,0.80
2023-04-04T16:36:27.619Z,0.90
2023-04-04T16:38:55.159Z,1.10
2023-04-04T16:41:22.261Z,1.10
2023-04-04T16:43:52.863Z,1.02
2023-04-04T16:46:20.211Z,1.13
2023-04-04T16:48:47.360Z,1.00
2023-04-04T16:51:14.436Z,1.00
2023-04-04T16:53:41.536Z,1.08
2023-04-04T16:56:09.039Z,0.80
2023-04-04T16:58:36.355Z,0.90
2023-04-04T17:01:03.923Z,0.60
2023-04-04T17:03:31.349Z,1.13
2023-04-04T17:06:00.324Z,1.13
2023-04-04T17:08:28.057Z,1.27
2023-04-04T17:10:55.394Z,1.08
2023-04-04T17:13:22.397Z,0.90
2023-04-04T17:15:49.595Z,0.90
2023-04-04T17:18:17.143Z,1.00
2023-04-04T17:20:44.389Z,1.10
2023-04-04T17:23:11.662Z,1.25
2023-04-04T17:25:38.722Z,1.05
2023-04-04T17:28:06.344Z,1.30
2023-04-04T17:30:33.352Z,1.00
2023-04-04T17:33:00.519Z,0.93
2023-04-04T17:35:30.885Z,0.98
2023-04-04T17:37:57.920Z,1.05
2023-04-04T17:40:24.948Z,1.20
2023-04-04T17:42:52.023Z,1.05
2023-04-04T17:45:19.819Z,1.00
2023-04-04T17:47:47.040Z,1.10
2023-04-04T17:50:14.490Z,1.02
2023-04-04T17:52:41.845Z,1.02
2023-04-04T17:55:09.532Z,0.80
2023-04-04T17:57:36.769Z,0.82
2023-04-04T18:00:04.594Z,1.10
2023-04-04T18:02:31.643Z,0.70
2023-04-04T18:04:58.973Z,0.90
2023-04-04T18:07:26.490Z,0.90
2023-04-04T18:09:53.684Z,0.98
2023-04-04T18:12:20.706Z,0.80
2023-04-04T18:14:48.620Z,1.07
2023-04-04T18:17:15.794Z,0.85
2023-04-04T18:19:42.824Z,0.77
2023-04-04T18:22:09.973Z,0.80
2023-04-04T18:24:37.572Z,0.80
2023-04-04T18:27:04.924Z,0.85
2023-04-04T18:29:32.656Z,0.80
2023-04-04T18:32:03.851Z,0.90
2023-04-04T18:34:31.413Z,0.65
2023-04-04T18:36:58.436Z,0.70
2023-04-04T18:39:26.079Z,0.88
2023-04-04T18:41:53.693Z,1.13
2023-04-04T18:44:22.198Z,0.65
2023-04-04T18:46:49.256Z,0.60
2023-04-04T18:49:16.400Z,0.75
2023-04-04T18:51:43.471Z,0.60
2023-04-04T18:54:10.524Z,0.82
2023-04-04T18:56:38.843Z,0.70
2023-04-04T18:59:06.158Z,0.70
2023-04-04T19:01:35.892Z,0.77
2023-04-04T19:04:04.412Z,0.70
2023-04-04T19:06:33.283Z,0.65
2023-04-04T19:09:04.331Z,0.70
2023-04-04T19:11:31.968Z,0.70
2023-04-04T19:14:00.247Z,0.70
2023-04-04T19:16:27.341Z,0.90
2023-04-04T19:18:54.571Z,0.80
2023-04-04T19:21:21.904Z,0.70
2023-04-04T19:23:49.246Z,0.50
2023-04-04T19:26:18.284Z,0.73
2023-04-04T19:28:46.637Z,0.60
2023-04-04T19:31:30.097Z,0.60
2023-04-04T19:33:57.528Z,0.50
2023-04-04T19:36:26.307Z,0.73
2023-04-04T19:38:54.818Z,0.85
2023-04-04T19:41:38.466Z,0.60
2023-04-04T19:44:12.688Z,0.50
2023-04-04T19:46:39.793Z,0.60
2023-04-04T19:49:12.457Z,0.50
2023-04-04T19:51:57.539Z,0.40
2023-04-04T19:54:29.686Z,0.50
2023-04-04T19:57:05.136Z,0.50
2023-04-04T20:00:10.215Z,0.60
2023-04-04T20:02:51.942Z,0.50
2023-04-04T20:05:47.774Z,0.70
2023-04-04T20:08:15.559Z,0.60
2023-04-04T20:10:43.168Z,0.60
2023-04-04T20:13:10.682Z,0.60
2023-04-04T20:15:47.564Z,0.60
2023-04-04T20:18:23.949Z,0.60
2023-04-04T20:21:31.613Z,0.60
2023-04-04T20:24:08.304Z,0.57
2023-04-04T20:26:38.666Z,0.60
2023-04-04T20:29:17.388Z,0.60
2023-04-04T20:31:59.363Z,0.63
2023-04-04T20:34:46.786Z,0.60
2023-04-04T20:37:23.591Z,0.50
2023-04-04T20:40:07.142Z,0.45
2023-04-04T20:42:40.599Z,0.50
2023-04-04T20:45:14.117Z,0.40
2023-04-04T20:47:46.869Z,0.52
2023-04-04T20:50:17.022Z,0.50
2023-04-04T20:52:53.576Z,0.60
2023-04-04T20:55:25.448Z,0.50
2023-04-04T20:57:57.379Z,0.73
2023-04-04T21:00:31.586Z,0.70
2023-04-04T21:03:11.125Z,0.63
2023-04-04T21:05:40.711Z,0.50
2023-04-04T21:08:37.919Z,0.60
2023-04-04T21:11:06.830Z,0.60
2023-04-04T21:13:42.175Z,0.40
2023-04-04T21:16:17.157Z,0.45
2023-04-04T21:18:45.382Z,0.60
2023-04-04T21:21:18.652Z,0.50
2023-04-04T21:23:55.497Z,0.52
2023-04-04T21:26:43.212Z,0.47
2023-04-04T21:29:26.615Z,0.40
2023-04-04T21:31:55.674Z,0.68
2023-04-04T21:34:26.350Z,0.68
2023-04-04T21:37:00.856Z,0.35
2023-04-04T21:39:31.410Z,0.50
2023-04-04T21:42:01.646Z,0.50
2023-04-04T21:44:30.745Z,0.50
2023-04-04T21:46:58.317Z,0.50
2023-04-04T21:49:26.353Z,0.60
2023-04-04T21:51:53.576Z,0.50
2023-04-04T21:54:21.016Z,0.60
2023-04-04T21:56:48.193Z,0.70
2023-04-04T21:59:15.283Z,0.40
2023-04-04T22:01:42.539Z,0.55
2023-04-04T22:04:10.984Z,0.50
2023-04-04T22:06:38.627Z,0.52
2023-04-04T22:09:06.676Z,0.40
2023-04-04T22:11:35.052Z,0.50
2023-04-04T22:14:07.256Z,0.57
2023-04-04T22:16:39.628Z,0.60
2023-04-04T22:19:07.825Z,0.50
2023-04-04T22:21:37.256Z,0.40
2023-04-04T22:24:06.222Z,0.50
2023-04-04T22:26:34.006Z,0.50
2023-04-04T22:29:05.380Z,0.57
2023-04-04T22:31:37.743Z,0.40
2023-04-04T22:34:06.533Z,0.50
2023-04-04T22:36:34.486Z,0.40
2023-04-04T22:39:02.097Z,0.50
2023-04-04T22:41:30.022Z,0.60
2023-04-04T22:43:58.223Z,0.50
2023-04-04T22:46:28.796Z,0.52
2023-04-04T22:49:05.800Z,0.60
2023-04-04T22:51:45.123Z,0.50
2023-04-04T22:54:16.255Z,0.40
2023-04-04T22:56:44.006Z,0.50
2023-04-04T22:59:11.462Z,0.52
2023-04-04T23:01:39.208Z,0.52
2023-04-04T23:04:06.734Z,0.40
2023-04-04T23:06:34.201Z,0.60
2023-04-04T23:09:01.997Z,0.40
2023-04-04T23:11:30.407Z,0.40
2023-04-04T23:14:00.738Z,0.50
2023-04-04T23:16:28.944Z,0.60
2023-04-04T23:18:56.259Z,0.50
2023-04-04T23:21:23.557Z,0.60
2023-04-04T23:23:50.879Z,0.50
2023-04-04T23:26:18.030Z,0.50
2023-04-04T23:28:44.997Z,0.40
2023-04-04T23:31:12.016Z,0.45
2023-04-04T23:33:39.058Z,0.47
2023-04-04T23:36:06.990Z,0.40
2023-04-04T23:38:34.216Z,0.40
2023-04-04T23:41:01.543Z,0.70
2023-04-04T23:43:28.955Z,0.40
2023-04-04T23:45:56.308Z,0.50
2023-04-04T23:48:23.454Z,0.50
2023-04-04T23:50:54.467Z,0.50
2023-04-04T23:53:21.694Z,0.40
2023-04-04T23:55:48.911Z,0.60
2023-04-04T23:58:17.000Z,0.40
